Time;durP1;ratioP1;P1;durP2;ratioP2;P2;SDS_P1;SDS_P2;PMS_P1;PMS_P2;Temp;Humidity;BMP_temperature;BMP_pressure;BME280_temperature;BME280_humidity;BME280_pressure;Samples;Min_cycle;Max_cycle;Signal;HPM_P1;HPM_P2
2024/03/10 00:04:50;;;;;;;;;;;;;;;18.91;42.49;97951.63;10324603;28;820;-69
2024/03/10 00:09:46;;;;;;;;;;;;;;;18.90;42.71;97960.50;10324894;28;1899;-69
2024/03/10 00:14:41;;;;;;;;;;;;;;;18.88;42.56;97957.16;10324565;28;936;-69
2024/03/10 00:19:38;;;;;;;;;;;;;;;18.88;42.65;97957.16;10332205;28;932;-70
2024/03/10 00:24:36;;;;;;;;;;;;;;;18.88;42.56;97949.22;10331800;28;841;-69
2024/03/10 00:29:34;;;;;;;;;;;;;;;18.87;42.52;97947.56;10330640;28;2335;-69
2024/03/10 00:34:30;;;;;;;;;;;;;;;18.85;42.57;97949.47;10331682;28;810;-69
2024/03/10 00:39:25;;;;;;;;;;;;;;;18.85;42.71;97943.34;10331180;28;763;-70
2024/03/10 00:44:21;;;;;;;;;;;;;;;18.84;42.53;97953.06;10331697;28;936;-69
2024/03/10 00:49:17;;;;;;;;;;;;;;;18.84;42.51;97955.72;10331470;28;1893;-70
2024/03/10 00:54:13;;;;;;;;;;;;;;;18.81;42.67;97953.28;10330860;28;1105;-69
2024/03/10 00:59:09;;;;;;;;;;;;;;;18.81;42.62;97969.13;10331149;28;861;-69
2024/03/10 01:04:05;;;;;;;;;;;;;;;18.79;42.48;97974.53;10330386;28;916;-70
2024/03/10 01:09:01;;;;;;;;;;;;;;;18.78;42.58;97972.81;10330023;28;1961;-70
2024/03/10 01:13:57;;;;;;;;;;;;;;;18.78;42.52;97969.34;10330013;28;883;-69
2024/03/10 01:18:52;;;;;;;;;;;;;;;18.76;42.49;97953.66;10330022;28;969;-70
2024/03/10 01:23:48;;;;;;;;;;;;;;;18.76;42.44;97952.81;10329863;28;861;-69
2024/03/10 01:28:44;;;;;;;;;;;;;;;18.76;42.61;97963.38;10329130;28;1987;-69
2024/03/10 01:33:40;;;;;;;;;;;;;;;18.74;42.57;97963.44;10329232;28;782;-70
2024/03/10 01:38:37;;;;;;;;;;;;;;;18.74;42.51;97959.97;10329723;28;862;-69
2024/03/10 01:43:33;;;;;;;;;;;;;;;18.73;42.52;97950.34;10328819;28;1625;-69
2024/03/10 01:48:29;;;;;;;;;;;;;;;18.72;42.47;97944.25;10329141;28;1961;-69
2024/03/10 01:53:25;;;;;;;;;;;;;;;18.71;42.59;97932.00;10329062;28;794;-70
2024/03/10 01:58:21;;;;;;;;;;;;;;;18.71;42.52;97925.91;10328198;28;926;-69
2024/03/10 02:03:17;;;;;;;;;;;;;;;18.70;42.47;97921.56;10328658;28;861;-69
2024/03/10 02:08:14;;;;;;;;;;;;;;;18.70;42.33;97908.38;10327681;28;925;-70
2024/03/10 02:13:11;;;;;;;;;;;;;;;18.68;42.67;97905.00;10328170;28;878;-69
2024/03/10 02:18:07;;;;;;;;;;;;;;;18.68;42.48;97905.00;10327422;28;858;-69
2024/03/10 02:23:02;;;;;;;;;;;;;;;18.67;42.52;97913.88;10326599;28;1190;-70
2024/03/10 02:27:59;;;;;;;;;;;;;;;18.66;42.55;97904.28;10327111;28;891;-70
2024/03/10 02:48:39;;;;;;;;;;;;;;;18.62;42.43;97877.28;10325859;28;1877;-70
2024/03/10 02:53:35;;;;;;;;;;;;;;;18.62;42.53;97861.44;10326166;28;799;-70
2024/03/10 02:58:31;;;;;;;;;;;;;;;18.61;42.54;97854.50;10326857;28;869;-69
2024/03/10 03:03:27;;;;;;;;;;;;;;;18.60;42.39;97850.16;10326536;28;925;-69
2024/03/10 03:08:24;;;;;;;;;;;;;;;18.58;42.47;97850.28;10325516;28;1898;-69
2024/03/10 03:13:20;;;;;;;;;;;;;;;18.58;42.41;97844.19;10325712;28;791;-70
2024/03/10 03:18:16;;;;;;;;;;;;;;;18.55;42.49;97839.97;10326219;28;856;-70
2024/03/10 03:23:12;;;;;;;;;;;;;;;18.53;42.39;97831.34;10325461;28;874;-70
2024/03/10 03:28:08;;;;;;;;;;;;;;;18.52;42.37;97828.81;10324891;28;1218;-69
2024/03/10 03:33:05;;;;;;;;;;;;;;;18.50;42.30;97814.91;10325541;28;1968;-70
2024/03/10 03:38:03;;;;;;;;;;;;;;;18.49;42.42;97819.31;10325018;28;874;-69
2024/03/10 03:42:58;;;;;;;;;;;;;;;18.46;42.48;97814.28;10325766;28;927;-70
2024/03/10 03:47:54;;;;;;;;;;;;;;;18.46;42.74;97822.22;10324993;28;846;-70
2024/03/10 03:52:50;;;;;;;;;;;;;;;18.43;42.43;97814.53;10329623;28;1913;-70
2024/03/10 03:57:46;;;;;;;;;;;;;;;18.43;42.43;97811.06;10333607;28;819;-69
2024/03/10 04:02:46;;;;;;;;;;;;;;;18.41;42.35;97811.16;10333300;28;819;-70
2024/03/10 04:07:42;;;;;;;;;;;;;;;18.41;42.26;97803.25;10331792;28;1232;-70
2024/03/10 04:12:38;;;;;;;;;;;;;;;18.40;42.22;97809.50;10332869;28;1901;-70
2024/03/10 04:17:34;;;;;;;;;;;;;;;18.39;42.42;97805.16;10332110;28;881;-70
2024/03/10 04:22:29;;;;;;;;;;;;;;;18.38;42.40;97790.31;10331376;28;1043;-70
2024/03/10 04:27:25;;;;;;;;;;;;;;;18.37;42.26;97791.28;10332419;28;906;-69
2024/03/10 04:32:21;;;;;;;;;;;;;;;18.37;42.25;97784.19;10332236;28;1913;-70
2024/03/10 04:37:17;;;;;;;;;;;;;;;18.37;42.33;97776.28;10331322;28;940;-69
2024/03/10 04:42:13;;;;;;;;;;;;;;;18.36;42.40;97771.94;10331394;28;1034;-70
2024/03/10 04:47:09;;;;;;;;;;;;;;;18.38;42.21;97769.19;10331083;28;847;-70
2024/03/10 04:52:05;;;;;;;;;;;;;;;18.39;42.32;97770.88;10330810;28;1882;-70
2024/03/10 04:57:01;;;;;;;;;;;;;;;18.40;42.40;97762.03;10330083;28;914;-70
2024/03/10 05:01:57;;;;;;;;;;;;;;;18.42;42.41;97749.56;10330636;28;830;-70
2024/03/10 05:06:53;;;;;;;;;;;;;;;18.42;42.22;97754.84;10330257;28;946;-70
2024/03/10 05:11:48;;;;;;;;;;;;;;;18.42;42.30;97746.91;10330018;28;1951;-69
2024/03/10 05:16:44;;;;;;;;;;;;;;;18.43;42.44;97751.22;10330618;28;803;-70
2024/03/10 05:21:40;;;;;;;;;;;;;;;18.44;42.61;97744.97;10329792;28;764;-69
2024/03/10 05:26:36;;;;;;;;;;;;;;;18.45;42.33;97741.41;10330444;28;933;-70
2024/03/10 05:31:32;;;;;;;;;;;;;;;18.46;42.41;97739.59;10329814;28;1948;-70
2024/03/10 05:36:28;;;;;;;;;;;;;;;18.46;42.54;97736.97;10330274;28;850;-69
2024/03/10 05:41:24;;;;;;;;;;;;;;;18.47;42.48;97747.41;10328855;28;913;-69
2024/03/10 05:46:20;;;;;;;;;;;;;;;18.48;42.23;97735.88;10328809;28;834;-70
2024/03/10 05:51:16;;;;;;;;;;;;;;;18.49;42.37;97744.63;10328467;28;1959;-70
2024/03/10 05:56:12;;;;;;;;;;;;;;;18.49;42.47;97734.91;10328990;28;864;-70
2024/03/10 06:01:08;;;;;;;;;;;;;;;18.50;42.46;97730.50;10328447;28;842;-69
2024/03/10 06:06:04;;;;;;;;;;;;;;;18.50;42.58;97731.34;10328526;28;965;-70
2024/03/10 06:11:00;;;;;;;;;;;;;;;18.51;42.56;97734.81;10327796;28;1902;-69
2024/03/10 06:15:55;;;;;;;;;;;;;;;18.51;42.26;97733.00;10326789;28;860;-69
2024/03/10 06:26:06;;;;;;;;;;;;;;;18.52;42.43;97728.56;10326796;28;616;-70
2024/03/10 06:31:02;;;;;;;;;;;;;;;18.51;42.31;97740.91;10327898;28;1918;-70
2024/03/10 06:35:58;;;;;;;;;;;;;;;18.52;42.32;97744.38;10326780;28;1306;-69
2024/03/10 06:40:54;;;;;;;;;;;;;;;18.52;42.12;97755.81;10326620;28;826;-69
2024/03/10 06:45:50;;;;;;;;;;;;;;;18.51;42.23;97748.81;10326769;28;917;-71
2024/03/10 06:50:46;;;;;;;;;;;;;;;18.52;42.36;97760.22;10327107;28;1902;-70
2024/03/10 06:55:42;;;;;;;;;;;;;;;18.53;42.14;97777.75;10325564;28;1016;-70
2024/03/10 07:00:39;;;;;;;;;;;;;;;18.52;42.30;97782.19;10325998;28;809;-70
2024/03/10 07:05:35;;;;;;;;;;;;;;;18.54;42.37;97789.97;10325912;28;814;-70
2024/03/10 07:10:31;;;;;;;;;;;;;;;18.55;42.30;97787.22;10325718;28;1901;-71
2024/03/10 07:15:27;;;;;;;;;;;;;;;18.54;42.28;97780.25;10326459;28;855;-72
2024/03/10 07:20:23;;;;;;;;;;;;;;;18.56;42.30;97780.97;10325574;28;765;-73
2024/03/10 07:25:20;;;;;;;;;;;;;;;18.57;42.28;97785.28;10325156;28;954;-70
2024/03/10 07:30:16;;;;;;;;;;;;;;;18.57;42.32;97795.00;10325698;28;1918;-69
2024/03/10 07:35:12;;;;;;;;;;;;;;;18.59;42.49;97795.72;10325750;28;867;-70
2024/03/10 07:40:16;;;;;;;;;;;;;;;18.59;42.39;97798.34;10325376;28;853;-70
2024/03/10 07:45:12;;;;;;;;;;;;;;;18.59;42.36;97786.00;10325305;28;852;-71
2024/03/10 07:50:08;;;;;;;;;;;;;;;18.61;42.61;97783.25;10325581;28;1963;-70
2024/03/10 07:55:04;;;;;;;;;;;;;;;18.62;42.54;97766.44;10324796;28;863;-70
2024/03/10 08:00:00;;;;;;;;;;;;;;;18.61;42.50;97754.22;10324766;28;923;-70
2024/03/10 08:04:57;;;;;;;;;;;;;;;18.62;42.38;97756.72;10325322;28;756;-71
2024/03/10 08:09:52;;;;;;;;;;;;;;;18.63;42.50;97762.88;10325067;28;1910;-70
2024/03/10 08:14:49;;;;;;;;;;;;;;;18.62;42.51;97758.53;10325086;28;798;-72
2024/03/10 08:19:45;;;;;;;;;;;;;;;18.63;42.42;97762.88;10324759;28;945;-70
2024/03/10 08:24:41;;;;;;;;;;;;;;;18.64;42.47;97774.25;10324833;28;779;-70
2024/03/10 08:29:37;;;;;;;;;;;;;;;18.65;42.43;97766.22;10324700;28;1981;-71
2024/03/10 08:34:33;;;;;;;;;;;;;;;18.65;42.53;97778.56;10323466;28;758;-70
2024/03/10 08:39:30;;;;;;;;;;;;;;;18.65;42.52;97753.00;10329302;28;865;-71
2024/03/10 08:44:25;;;;;;;;;;;;;;;18.68;42.38;97771.28;10331755;28;1709;-69
2024/03/10 08:49:21;;;;;;;;;;;;;;;18.68;42.58;97771.28;10330385;28;1906;-70
2024/03/10 08:54:17;;;;;;;;;;;;;;;18.68;42.37;97760.72;10330883;28;937;-70
2024/03/10 08:59:13;;;;;;;;;;;;;;;18.69;42.57;97761.53;10330618;28;786;-70
2024/03/10 09:04:10;;;;;;;;;;;;;;;18.69;42.65;97753.63;10330419;28;862;-70
2024/03/10 09:09:06;;;;;;;;;;;;;;;18.71;42.41;97741.16;10330179;28;1957;-71
2024/03/10 09:14:03;;;;;;;;;;;;;;;18.72;42.49;97740.19;10330925;28;760;-70
2024/03/10 09:18:59;;;;;;;;;;;;;;;18.71;42.45;97728.81;10330496;28;782;-70
2024/03/10 09:23:55;;;;;;;;;;;;;;;18.72;42.39;97729.63;10329736;28;897;-71
2024/03/10 09:28:50;;;;;;;;;;;;;;;18.72;42.58;97729.63;10329069;28;1914;-71
2024/03/10 09:33:46;;;;;;;;;;;;;;;18.73;42.60;97731.31;10329147;28;818;-71
2024/03/10 09:38:44;;;;;;;;;;;;;;;18.74;42.40;97717.16;10329193;28;918;-71
2024/03/10 09:43:44;;;;;;;;;;;;;;;18.75;42.50;97703.03;10328676;28;950;-71
2024/03/10 09:48:42;;;;;;;;;;;;;;;18.75;42.53;97666.91;10325590;28;1947;-71
2024/03/10 09:53:38;;;;;;;;;;;;;;;18.75;42.57;97629.97;10327971;28;783;-71
2024/03/10 09:58:34;;;;;;;;;;;;;;;18.78;42.56;97655.28;10327370;28;1076;-71
2024/03/10 10:03:30;;;;;;;;;;;;;;;18.77;42.46;97653.59;10327562;28;850;-71
2024/03/10 10:08:29;;;;;;;;;;;;;;;18.77;42.48;97653.59;10326901;28;904;-71
2024/03/10 10:13:26;;;;;;;;;;;;;;;18.75;42.45;97666.91;10327176;28;1945;-71
2024/03/10 10:18:23;;;;;;;;;;;;;;;18.77;42.63;97680.00;10326515;28;894;-71
2024/03/10 10:23:21;;;;;;;;;;;;;;;18.77;42.65;97674.72;10326907;28;900;-71
2024/03/10 10:28:17;;;;;;;;;;;;;;;18.79;42.50;97676.28;10326040;28;1164;-70
2024/03/10 10:33:14;;;;;;;;;;;;;;;18.79;42.56;97675.44;10326505;28;1915;-70
2024/03/10 10:38:13;;;;;;;;;;;;;;;18.80;42.61;97677.09;10325760;28;978;-70
2024/03/10 10:43:09;;;;;;;;;;;;;;;18.80;42.61;97672.66;10326087;28;850;-71
2024/03/10 10:48:04;;;;;;;;;;;;;;;18.80;42.45;97661.28;10325250;28;814;-70
2024/03/10 10:53:01;;;;;;;;;;;;;;;18.81;42.62;97665.56;10325776;28;1886;-70
2024/03/10 10:57:57;;;;;;;;;;;;;;;18.80;42.70;97670.03;10325937;28;786;-69
2024/03/10 11:02:53;;;;;;;;;;;;;;;18.80;42.63;97677.94;10325116;28;920;-70
2024/03/10 11:07:49;;;;;;;;;;;;;;;18.80;42.62;97663.91;10324610;28;846;-71
2024/03/10 11:12:44;;;;;;;;;;;;;;;18.80;42.71;97654.19;10324967;28;1890;-71
2024/03/10 11:17:45;;;;;;;;;;;;;;;18.80;42.77;97659.47;10324933;28;830;-70
2024/03/10 11:22:41;;;;;;;;;;;;;;;18.80;42.63;97666.56;10325456;28;870;-71
2024/03/10 11:27:37;;;;;;;;;;;;;;;18.81;42.68;97653.25;10324719;28;948;-70
2024/03/10 11:32:33;;;;;;;;;;;;;;;18.83;42.67;97656.56;10323700;28;1983;-71
2024/03/10 11:37:29;;;;;;;;;;;;;;;18.84;42.61;97660.06;10325140;28;869;-70
2024/03/10 11:42:26;;;;;;;;;;;;;;;18.83;42.74;97671.56;10324856;28;779;-71
2024/03/10 11:47:23;;;;;;;;;;;;;;;18.85;42.68;97663.53;10323453;28;1066;-73
2024/03/10 11:52:20;;;;;;;;;;;;;;;18.84;42.71;97673.28;10324797;28;1955;-71
2024/03/10 11:57:16;;;;;;;;;;;;;;;18.84;42.69;97683.84;10324529;28;862;-74
2024/03/10 12:02:12;;;;;;;;;;;;;;;18.83;42.85;97679.50;10324342;28;790;-71
2024/03/10 12:07:08;;;;;;;;;;;;;;;18.82;42.67;97681.31;10323891;28;858;-70
2024/03/10 12:12:09;;;;;;;;;;;;;;;18.82;42.68;97673.38;10325819;28;1890;-71
2024/03/10 12:17:06;;;;;;;;;;;;;;;18.85;42.73;97655.63;10332810;28;839;-71
2024/03/10 12:22:01;;;;;;;;;;;;;;;18.84;42.93;97652.16;10331821;28;771;-70
2024/03/10 12:26:57;;;;;;;;;;;;;;;18.85;42.81;97645.91;10332215;28;818;-71
2024/03/10 12:31:53;;;;;;;;;;;;;;;18.85;42.72;97640.63;10331801;28;1902;-71
2024/03/10 12:36:51;;;;;;;;;;;;;;;18.85;42.80;97629.22;10331306;28;942;-70
2024/03/10 12:41:47;;;;;;;;;;;;;;;18.86;42.86;97630.91;10331002;28;993;-70
2024/03/10 12:46:42;;;;;;;;;;;;;;;18.86;42.84;97626.44;10330934;28;955;-70
2024/03/10 12:51:39;;;;;;;;;;;;;;;18.88;42.84;97616.63;10330699;28;1885;-70
2024/03/10 12:56:35;;;;;;;;;;;;;;;18.89;42.93;97618.31;10331122;28;802;-71
2024/03/10 13:01:31;;;;;;;;;;;;;;;18.86;42.91;97621.16;10329715;28;1051;-70
2024/03/10 13:06:27;;;;;;;;;;;;;;;18.88;42.87;97613.97;10330062;28;938;-71
2024/03/10 13:11:26;;;;;;;;;;;;;;;18.88;42.77;97603.41;10329387;28;1959;-71
2024/03/10 13:16:23;;;;;;;;;;;;;;;18.88;42.81;97607.88;10329783;28;842;-71
2024/03/10 13:21:19;;;;;;;;;;;;;;;18.87;42.98;97601.75;10329614;28;1111;-71
2024/03/10 13:26:15;;;;;;;;;;;;;;;18.88;43.05;97595.50;10329120;28;905;-70
2024/03/10 13:31:10;;;;;;;;;;;;;;;18.89;42.97;97577.84;10329185;28;1914;-71
2024/03/10 13:36:06;;;;;;;;;;;;;;;18.89;43.08;97583.13;10329288;28;815;-71
2024/03/10 13:41:02;;;;;;;;;;;;;;;18.88;42.98;97590.22;10329432;28;854;-71
2024/03/10 13:45:59;;;;;;;;;;;;;;;18.88;43.06;97592.03;10330047;28;893;-71
2024/03/10 13:50:55;;;;;;;;;;;;;;;18.88;42.90;97590.22;10328394;28;1985;-71
2024/03/10 13:55:51;;;;;;;;;;;;;;;18.88;43.01;97590.22;10328291;28;901;-71
2024/03/10 14:00:46;;;;;;;;;;;;;;;18.88;43.03;97582.28;10328838;28;810;-71
2024/03/10 14:05:42;;;;;;;;;;;;;;;18.91;42.99;97582.03;10328186;28;942;-71
2024/03/10 14:10:38;;;;;;;;;;;;;;;18.92;42.98;97591.66;10327701;28;1890;-71
2024/03/10 14:15:34;;;;;;;;;;;;;;;18.93;42.97;97593.31;10327741;28;781;-72
2024/03/10 14:20:31;;;;;;;;;;;;;;;18.94;42.92;97595.00;10327526;28;774;-71
2024/03/10 14:25:26;;;;;;;;;;;;;;;18.94;42.87;97587.09;10327313;28;785;-71
2024/03/10 14:30:24;;;;;;;;;;;;;;;19.00;42.97;97569.91;10328201;28;1918;-71
2024/03/10 14:35:21;;;;;;;;;;;;;;;19.05;42.64;97578.28;10326141;28;855;-71
2024/03/10 14:40:21;;;;;;;;;;;;;;;19.03;42.92;97567.00;10327179;28;862;-71
2024/03/10 14:45:17;;;;;;;;;;;;;;;18.96;43.02;97573.75;10327863;28;889;-73
2024/03/10 14:50:13;;;;;;;;;;;;;;;18.94;42.98;97570.38;10326402;28;1902;-73
2024/03/10 14:55:08;;;;;;;;;;;;;;;18.92;42.98;97570.53;10326254;28;979;-73
2024/03/10 15:00:05;;;;;;;;;;;;;;;18.90;43.16;97567.19;10326641;28;905;-73
2024/03/10 15:05:04;;;;;;;;;;;;;;;18.89;43.20;97572.56;10325017;28;1172;-73
2024/03/10 15:10:00;;;;;;;;;;;;;;;18.88;43.25;97570.91;10325329;28;1894;-75
2024/03/10 15:14:56;;;;;;;;;;;;;;;18.87;43.34;97587.72;10325730;28;1150;-73
2024/03/10 15:19:52;;;;;;;;;;;;;;;18.85;43.20;97587.00;10325608;28;866;-73
2024/03/10 15:24:48;;;;;;;;;;;;;;;18.84;43.32;97599.38;10324440;28;1189;-73
2024/03/10 15:29:45;;;;;;;;;;;;;;;18.83;43.23;97600.31;10324989;28;1918;-73
2024/03/10 15:34:41;;;;;;;;;;;;;;;18.83;43.35;97590.59;10324888;28;886;-73
2024/03/10 15:39:37;;;;;;;;;;;;;;;18.85;43.22;97594.91;10325624;28;899;-73
2024/03/10 15:44:35;;;;;;;;;;;;;;;18.83;43.14;97589.75;10324804;28;802;-73
2024/03/10 15:49:30;;;;;;;;;;;;;;;18.83;43.38;97579.19;10333200;28;1965;-73
2024/03/10 15:54:27;;;;;;;;;;;;;;;18.83;43.30;97590.59;10332731;28;897;-74
2024/03/10 15:59:24;;;;;;;;;;;;;;;18.83;43.24;97600.31;10333455;28;838;-74
2024/03/10 16:04:20;;;;;;;;;;;;;;;18.84;43.26;97607.28;10332351;28;906;-76
2024/03/10 16:09:21;;;;;;;;;;;;;;;18.85;43.41;97594.91;10331909;28;1902;-73
2024/03/10 16:14:17;;;;;;;;;;;;;;;18.84;43.41;97591.44;10331914;28;877;-73
2024/03/10 16:19:13;;;;;;;;;;;;;;;18.85;43.35;97618.69;10331862;28;825;-73
2024/03/10 16:24:13;;;;;;;;;;;;;;;18.86;43.55;97628.25;10331623;28;845;-73
2024/03/10 16:29:09;;;;;;;;;;;;;;;18.85;43.50;97622.16;10331173;28;1913;-74
2024/03/10 16:34:04;;;;;;;;;;;;;;;18.86;43.42;97636.19;10332138;28;964;-74
2024/03/10 16:39:00;;;;;;;;;;;;;;;18.85;43.34;97640.63;10332153;28;772;-73
2024/03/10 16:43:57;;;;;;;;;;;;;;;18.87;43.39;97638.69;10331290;28;897;-73
2024/03/10 16:48:53;;;;;;;;;;;;;;;18.86;43.38;97638.81;10331739;28;1898;-74
2024/03/10 16:53:49;;;;;;;;;;;;;;;18.87;43.44;97651.91;10330973;28;779;-74
2024/03/10 16:58:45;;;;;;;;;;;;;;;18.86;43.39;97662.56;10329978;28;954;-74
2024/03/10 17:03:41;;;;;;;;;;;;;;;18.86;43.51;97671.31;10330589;28;869;-75
2024/03/10 17:08:37;;;;;;;;;;;;;;;18.85;43.49;97680.22;10330477;28;771;-73
2024/03/10 17:13:33;;;;;;;;;;;;;;;18.86;43.41;97694.25;10330652;28;1953;-74
2024/03/10 17:18:28;;;;;;;;;;;;;;;18.86;43.27;97705.63;10329840;28;811;-74
2024/03/10 17:23:24;;;;;;;;;;;;;;;18.87;43.46;97704.69;10329150;28;900;-73
2024/03/10 17:28:20;;;;;;;;;;;;;;;18.86;43.56;97710.91;10329278;28;1255;-74
2024/03/10 17:33:16;;;;;;;;;;;;;;;18.84;43.41;97710.22;10329442;28;1969;-74
2024/03/10 17:38:14;;;;;;;;;;;;;;;18.86;43.40;97739.13;10330162;28;838;-75
2024/03/10 17:43:10;;;;;;;;;;;;;;;18.85;43.40;97751.47;10328843;28;879;-74
2024/03/10 17:48:06;;;;;;;;;;;;;;;18.85;43.48;97735.66;10328735;28;813;-74
2024/03/10 17:53:04;;;;;;;;;;;;;;;18.86;43.48;97733.84;10329183;28;1947;-74
2024/03/10 17:58:03;;;;;;;;;;;;;;;18.85;43.36;97735.66;10328612;28;870;-74
2024/03/10 18:02:58;;;;;;;;;;;;;;;18.87;43.37;97746.94;10329251;28;1085;-74
2024/03/10 18:07:54;;;;;;;;;;;;;;;18.85;43.48;97730.38;10327961;28;764;-75
2024/03/10 18:12:51;;;;;;;;;;;;;;;18.86;43.52;97724.13;10326674;28;1918;-74
2024/03/10 18:17:47;;;;;;;;;;;;;;;18.86;43.55;97739.13;10328281;28;837;-75
2024/03/10 18:22:44;;;;;;;;;;;;;;;18.86;43.47;97741.75;10327791;28;921;-75
2024/03/10 18:27:39;;;;;;;;;;;;;;;18.86;43.35;97745.22;10327224;28;815;-74
2024/03/10 18:32:35;;;;;;;;;;;;;;;18.88;43.47;97743.31;10326632;28;1914;-74
2024/03/10 18:37:31;;;;;;;;;;;;;;;18.87;43.32;97754.84;10326647;28;1521;-74
2024/03/10 18:42:27;;;;;;;;;;;;;;;18.88;43.57;97738.03;10327280;28;880;-74
2024/03/10 18:47:23;;;;;;;;;;;;;;;18.88;43.41;97745.97;10326299;28;780;-74
2024/03/10 18:52:20;;;;;;;;;;;;;;;18.89;43.45;97741.50;10326680;28;1956;-74
2024/03/10 18:57:19;;;;;;;;;;;;;;;18.88;43.32;97751.22;10326534;28;810;-74
2024/03/10 19:02:15;;;;;;;;;;;;;;;18.89;43.61;97752.94;10325827;28;958;-75
2024/03/10 19:07:10;;;;;;;;;;;;;;;18.90;43.32;97754.59;10326359;28;980;-74
2024/03/10 19:12:06;;;;;;;;;;;;;;;18.90;43.56;97751.13;10325602;28;1961;-74
2024/03/10 19:17:02;;;;;;;;;;;;;;;18.91;43.49;97758.91;10324950;28;845;-75
2024/03/10 19:21:58;;;;;;;;;;;;;;;18.90;43.40;97757.25;10325728;28;814;-74
2024/03/10 19:26:55;;;;;;;;;;;;;;;18.90;43.33;97757.25;10325382;28;790;-74
2024/03/10 19:31:51;;;;;;;;;;;;;;;18.90;43.36;97759.88;10324299;28;1914;-74
2024/03/10 19:36:47;;;;;;;;;;;;;;;18.91;43.59;97772.09;10308543;28;1953;-74
2024/03/10 19:41:43;;;;;;;;;;;;;;;18.92;43.33;97779.09;10325555;28;822;-74
2024/03/10 19:46:38;;;;;;;;;;;;;;;18.91;43.29;97779.19;10325522;28;1048;-74
2024/03/10 19:51:34;;;;;;;;;;;;;;;18.92;43.49;97779.09;10324699;28;1997;-74
2024/03/10 19:56:30;;;;;;;;;;;;;;;18.93;43.46;97788.66;10324659;28;815;-74
2024/03/10 20:01:27;;;;;;;;;;;;;;;18.92;43.45;97784.38;10325204;28;956;-75
2024/03/10 20:06:24;;;;;;;;;;;;;;;18.93;43.52;97796.59;10325102;28;941;-74
2024/03/10 20:11:20;;;;;;;;;;;;;;;18.93;43.27;97793.94;10324206;28;1972;-74
2024/03/10 20:16:16;;;;;;;;;;;;;;;18.94;43.38;97802.69;10324289;28;938;-74
2024/03/10 20:21:12;;;;;;;;;;;;;;;18.94;43.40;97800.06;10323572;28;1005;-74
2024/03/10 20:26:08;;;;;;;;;;;;;;;18.93;43.41;97799.22;10324086;28;774;-74
2024/03/10 20:31:04;;;;;;;;;;;;;;;18.94;43.47;97798.28;10324645;28;1910;-74
2024/03/10 20:36:00;;;;;;;;;;;;;;;18.94;43.19;97798.28;10330801;28;940;-74
2024/03/10 20:40:56;;;;;;;;;;;;;;;18.93;43.42;97799.22;10332015;28;858;-74
2024/03/10 20:45:52;;;;;;;;;;;;;;;18.93;43.38;97801.88;10331520;28;847;-75
2024/03/10 20:50:50;;;;;;;;;;;;;;;18.92;43.24;97789.66;10331368;28;1893;-74
2024/03/10 20:55:46;;;;;;;;;;;;;;;18.90;43.43;97786.28;10331262;28;891;-74
2024/03/10 21:00:42;;;;;;;;;;;;;;;18.90;43.32;97791.56;10330509;28;971;-75
2024/03/10 21:05:38;;;;;;;;;;;;;;;18.89;43.43;97792.53;10330379;28;970;-74
2024/03/10 21:10:34;;;;;;;;;;;;;;;18.90;43.56;97793.38;10330191;28;1898;-74
2024/03/10 21:15:30;;;;;;;;;;;;;;;18.88;43.39;97788.19;10330333;28;771;-74
2024/03/10 21:20:26;;;;;;;;;;;;;;;18.87;43.32;97791.81;10330738;28;791;-74
2024/03/10 21:25:27;;;;;;;;;;;;;;;18.86;43.41;97803.31;10330521;28;822;-74
2024/03/10 21:30:23;;;;;;;;;;;;;;;18.86;43.41;97803.31;10330522;28;1980;-74
2024/03/10 21:35:22;;;;;;;;;;;;;;;18.85;43.43;97806.09;10330241;28;885;-74
2024/03/10 21:40:18;;;;;;;;;;;;;;;18.84;43.49;97815.81;10329229;28;912;-74
2024/03/10 21:45:14;;;;;;;;;;;;;;;18.83;43.41;97824.66;10328840;28;901;-74
2024/03/10 21:50:10;;;;;;;;;;;;;;;18.83;43.47;97832.59;10328895;28;1893;-74
2024/03/10 21:55:06;;;;;;;;;;;;;;;18.82;43.48;97841.47;10328967;28;931;-74
2024/03/10 22:00:04;;;;;;;;;;;;;;;18.81;43.42;97843.28;10329299;28;865;-74
2024/03/10 22:05:00;;;;;;;;;;;;;;;18.80;43.53;97838.09;10328259;28;893;-73
2024/03/10 22:09:56;;;;;;;;;;;;;;;18.79;43.52;97831.16;10327470;28;1943;-73
2024/03/10 22:14:52;;;;;;;;;;;;;;;18.77;43.60;97831.28;10327963;28;822;-74
2024/03/10 22:19:48;;;;;;;;;;;;;;;18.75;43.51;97830.53;10327644;28;1002;-74
2024/03/10 22:24:44;;;;;;;;;;;;;;;18.75;43.58;97829.72;10327476;28;865;-74
2024/03/10 22:29:40;;;;;;;;;;;;;;;18.73;43.61;97828.94;10328085;28;1981;-74
2024/03/10 22:34:36;;;;;;;;;;;;;;;18.72;43.43;97827.28;10328360;28;976;-74
2024/03/10 22:39:31;;;;;;;;;;;;;;;18.71;43.60;97825.63;10326829;28;910;-72
2024/03/10 22:44:28;;;;;;;;;;;;;;;18.70;43.45;97821.28;10326798;28;839;-74
2024/03/10 22:49:24;;;;;;;;;;;;;;;18.70;43.56;97826.56;10327132;28;1898;-73
2024/03/10 22:54:19;;;;;;;;;;;;;;;18.68;43.51;97824.06;10326350;28;891;-74
2024/03/10 22:59:15;;;;;;;;;;;;;;;18.69;43.59;97827.53;10325925;28;925;-74
2024/03/10 23:04:14;;;;;;;;;;;;;;;18.67;43.62;97840.00;10326740;28;809;-74
2024/03/10 23:09:10;;;;;;;;;;;;;;;18.66;43.57;97830.41;10325758;28;1943;-74
2024/03/10 23:14:07;;;;;;;;;;;;;;;18.63;43.28;97834.13;10325885;28;768;-74
2024/03/10 23:19:03;;;;;;;;;;;;;;;18.63;43.48;97826.19;10325681;28;1661;-74
2024/03/10 23:24:00;;;;;;;;;;;;;;;18.60;43.57;97816.72;10326208;28;894;-74
2024/03/10 23:28:57;;;;;;;;;;;;;;;18.59;43.50;97830.03;10325862;28;1419;-74
2024/03/10 23:33:53;;;;;;;;;;;;;;;18.59;43.58;97828.22;10325555;28;1910;-74
2024/03/10 23:38:49;;;;;;;;;;;;;;;18.57;43.59;97832.75;10325349;28;767;-74
2024/03/10 23:43:45;;;;;;;;;;;;;;;18.56;43.43;97823.19;10325160;28;850;-74
2024/03/10 23:48:42;;;;;;;;;;;;;;;18.55;43.56;97829.44;10325158;28;945;-74
2024/03/10 23:53:41;;;;;;;;;;;;;;;18.56;43.52;97830.25;10324881;28;1886;-73
2024/03/10 23:58:37;;;;;;;;;;;;;;;18.54;43.50;97825.09;10324956;28;855;-74
